Rockwood, Illinois
Current Conditions -  °F | °C
As of 11:39 AM on Monday 22 Dec 2014 (Local Time) from KSAR Reporting Station
Drizzle Drizzle  
Wind Chill: 42°   Ceiling: 600
Heat Index: 46°   Visibility: 7mi
Dew Point: 45°   Wind: 8mph
Humidity: 93%   Direction: 160°SSE
Pressure: 29.7"   Gusts: NA
Location:  37.84°N, 89.7°W
Report Text: KSAR 221739Z AUTO 16007KT 7SM DZ OVC006 08/07 A2970 RMK AO2
Loading
Personal Weather Stations






























Interactive Weather Map New forecast layout! Learn more

10-Day Weather Forecast

Advertisements
Track Severe Weather on mobile